Time;durP1;ratioP1;P1;durP2;ratioP2;P2;SDS_P1;SDS_P2;PMS_P1;PMS_P2;Temp;Humidity;BMP_temperature;BMP_pressure;BME280_temperature;BME280_humidity;BME280_pressure;Samples;Min_cycle;Max_cycle;Signal;HPM_P1;HPM_P2
2023/05/20 00:01:58;;;;;;;12.48;3.83;;;;;;;15.44;74.91;99943.13;5090004;28;20036;-80
2023/05/20 00:04:23;;;;;;;12.45;5.78;;;;;;;15.32;75.14;99930.22;5090308;28;20028;-80
2023/05/20 00:06:49;;;;;;;14.60;5.55;;;;;;;15.14;75.38;99913.09;5071181;28;20115;-80
2023/05/20 00:09:16;;;;;;;17.90;6.82;;;;;;;14.95;75.45;99887.06;5090121;28;20060;-80
2023/05/20 00:11:41;;;;;;;20.58;5.80;;;;;;;15.26;73.78;99918.03;5089568;28;20039;-80
2023/05/20 00:14:07;;;;;;;6.55;4.07;;;;;;;15.28;73.83;99963.16;5090141;28;20115;-79
2023/05/20 00:16:32;;;;;;;;;;;;;;;15.19;72.44;99937.72;5090573;28;20040;-82
2023/05/20 00:18:58;;;;;;;11.07;4.70;;;;;;;14.86;73.23;99906.78;5089975;28;19916;-83
2023/05/20 00:21:23;;;;;;;4.05;2.33;;;;;;;14.55;74.87;99897.91;5089425;28;20042;-84
2023/05/20 00:23:49;;;;;;;4.60;2.58;;;;;;;14.37;76.10;99900.19;5089822;28;20111;-82
2023/05/20 00:26:15;;;;;;;5.22;3.63;;;;;;;14.56;76.11;99911.16;5090018;28;20057;-82
2023/05/20 00:28:41;;;;;;;7.93;3.20;;;;;;;14.66;75.85;99912.69;5089687;28;20032;-82
2023/05/20 00:31:06;;;;;;;7.03;3.38;;;;;;;14.55;76.54;99906.78;5089781;28;20513;-82
2023/05/20 00:33:32;;;;;;;;;;;;;;;14.57;76.52;99923.53;5090124;28;20081;-82
2023/05/20 00:35:57;;;;;;;6.82;3.72;;;;;;;14.36;77.89;99893.13;5089865;28;19912;-83
2023/05/20 00:38:22;;;;;;;7.68;4.07;;;;;;;14.41;77.48;99888.59;5089775;28;20047;-82
2023/05/20 00:40:48;;;;;;;10.30;4.90;;;;;;;14.72;77.12;99918.72;5089402;28;20519;-83
2023/05/20 00:43:13;;;;;;;8.25;3.40;;;;;;;14.66;77.15;99909.16;5087802;28;20040;-81
2023/05/20 00:45:39;;;;;;;6.85;4.43;;;;;;;14.74;77.50;99920.44;5089848;28;20062;-82
2023/05/20 00:48:06;;;;;;;5.22;3.70;;;;;;;14.46;77.30;99870.72;5089711;28;20028;-82
2023/05/20 00:50:31;;;;;;;8.10;3.72;;;;;;;14.62;76.84;99883.59;5088682;28;20425;-82
2023/05/20 00:52:57;;;;;;;8.43;3.72;;;;;;;14.65;77.87;99920.69;5089336;28;20028;-82
2023/05/20 00:55:24;;;;;;;5.85;3.45;;;;;;;14.61;78.03;99932.28;5089089;28;20032;-81
2023/05/20 00:57:51;;;;;;;8.02;3.47;;;;;;;14.24;78.11;99843.94;5071462;28;20040;-81
2023/05/20 01:00:16;;;;;;;6.75;3.80;;;;;;;14.43;78.24;99878.78;5089283;28;20044;-82
2023/05/20 01:02:42;;;;;;;5.20;3.90;;;;;;;14.49;78.21;99894.53;5089220;28;20042;-82
2023/05/20 01:05:08;;;;;;;6.15;3.67;;;;;;;14.54;78.69;99890.91;5090334;28;20024;-82
2023/05/20 01:07:33;;;;;;;6.90;3.58;;;;;;;14.43;77.49;99854.91;5092767;28;20082;-82
2023/05/20 01:09:59;;;;;;;5.35;2.42;;;;;;;14.51;78.19;99889.19;5093238;28;20027;-82
2023/05/20 01:12:33;;;;;;;6.90;4.03;;;;;;;14.29;78.14;99865.91;5092710;28;20043;-82
2023/05/20 01:15:09;;;;;;;6.88;2.80;;;;;;;14.44;79.04;99900.88;5093224;28;20033;-82
2023/05/20 01:17:38;;;;;;;3.35;2.70;;;;;;;14.49;78.12;99889.22;5093225;28;20055;-82
2023/05/20 01:20:09;;;;;;;4.70;2.95;;;;;;;14.66;77.94;99918.00;5075173;28;20412;-82
2023/05/20 01:22:45;;;;;;;7.00;3.78;;;;;;;14.43;77.91;99869.97;5054217;28;20029;-82
2023/05/20 01:25:11;;;;;;;19.48;3.33;;;;;;;14.39;77.99;99885.06;5073047;28;20033;-82
2023/05/20 01:27:36;;;;;;;4.60;2.83;;;;;;;14.43;77.59;99883.22;5072572;28;20016;-82
2023/05/20 01:30:02;;;;;;;5.35;2.72;;;;;;;14.29;77.60;99892.44;5082478;28;20467;-82
2023/05/20 01:32:36;;;;;;;5.30;3.30;;;;;;;14.14;77.70;99864.53;5091749;28;20036;-82
2023/05/20 01:35:03;;;;;;;7.28;2.95;;;;;;;14.18;78.59;99886.56;5093160;28;20444;-81
2023/05/20 01:37:30;;;;;;;4.45;3.08;;;;;;;14.04;79.06;99862.16;5092628;28;20051;-81
2023/05/20 01:39:57;;;;;;;4.88;3.20;;;;;;;14.13;78.63;99862.81;5092911;28;20450;-82
2023/05/20 01:42:25;;;;;;;4.03;3.00;;;;;;;13.96;79.93;99857.94;5092591;28;20028;-82
2023/05/20 01:44:51;;;;;;;5.20;3.25;;;;;;;14.15;79.99;99890.16;5092406;28;20036;-81
2023/05/20 01:47:16;;;;;;;5.97;2.83;;;;;;;14.14;79.23;99866.31;5092595;28;20112;-81
2023/05/20 01:49:42;;;;;;;6.72;3.20;;;;;;;14.32;78.81;99899.44;5092951;28;20114;-81
2023/05/20 01:52:07;;;;;;;6.28;3.30;;;;;;;14.01;78.92;99867.53;5092655;28;20058;-81
2023/05/20 01:54:33;;;;;;;;;;;;;;;14.09;79.20;99900.91;5092562;28;20024;-82
2023/05/20 01:56:58;;;;;;;15.50;4.03;;;;;;;14.05;79.46;99903.69;5092717;28;20323;-81
2023/05/20 01:59:23;;;;;;;15.80;4.45;;;;;;;14.01;79.53;99873.75;5092712;28;20044;-82
2023/05/20 02:01:49;;;;;;;5.45;3.55;;;;;;;14.14;78.96;99892.84;5092661;28;20044;-81
2023/05/20 02:04:15;;;;;;;5.72;3.20;;;;;;;13.98;79.58;99860.56;5073284;28;20036;-81
2023/05/20 02:06:40;;;;;;;;;;;;;;;14.13;79.56;99884.03;5092793;28;20028;-82
2023/05/20 02:09:06;;;;;;;4.50;2.75;;;;;;;13.86;79.32;99864.38;5091159;28;19971;-81
2023/05/20 02:11:31;;;;;;;7.63;4.28;;;;;;;13.72;79.95;99853.28;5092074;28;20126;-81
2023/05/20 02:13:57;;;;;;;;;;;;;;;13.67;81.08;99877.25;5091609;28;20035;-81
2023/05/20 02:16:22;;;;;;;5.60;3.25;;;;;;;13.57;80.52;99854.53;5091684;28;20372;-81
2023/05/20 02:18:47;;;;;;;;;;;;;;;13.76;80.32;99879.66;5092003;28;20085;-81
2023/05/20 02:21:13;;;;;;;8.43;4.20;;;;;;;13.55;80.43;99843.09;5073261;28;20396;-81
2023/05/20 02:23:38;;;;;;;;;;;;;;;13.75;79.89;99872.63;5092489;28;20028;-81
2023/05/20 02:26:04;;;;;;;9.23;4.18;;;;;;;13.55;80.32;99849.25;5091846;28;20369;-81
2023/05/20 02:28:29;;;;;;;5.50;3.17;;;;;;;13.77;80.29;99883.19;5091895;28;20032;-82
2023/05/20 02:30:55;;;;;;;3.85;2.53;;;;;;;13.42;80.75;99853.09;5091376;28;20036;-82
2023/05/20 02:33:20;;;;;;;;;;;;;;;13.51;81.81;99873.22;5091604;28;20031;-82
2023/05/20 02:35:45;;;;;;;;;;;;;;;12.95;84.19;99884.19;5073939;28;20018;-82
2023/05/20 02:38:11;;;;;;;;;;;;;;;13.18;84.17;99881.88;5091935;28;19912;-82
2023/05/20 02:40:37;;;;;;;4.68;3.00;;;;;;;13.35;83.07;99880.69;5091564;28;19911;-82
2023/05/20 02:43:02;;;;;;;4.32;3.30;;;;;;;13.41;83.20;99883.19;5091134;28;20094;-82
2023/05/20 02:45:28;;;;;;;;;;;;;;;13.37;83.80;99885.00;5087860;28;20039;-83
2023/05/20 02:47:53;;;;;;;6.32;3.90;;;;;;;13.23;83.22;99829.66;5079460;28;20006;-82
2023/05/20 02:50:19;;;;;;;7.30;3.55;;;;;;;13.58;83.04;99883.63;5091941;28;20052;-81
2023/05/20 02:52:45;;;;;;;4.90;3.25;;;;;;;13.73;82.39;99865.59;5090713;28;20028;-82
2023/05/20 02:55:10;;;;;;;;;;;;;;;13.73;82.86;99892.09;5091500;28;20039;-82
2023/05/20 02:57:39;;;;;;;7.57;4.95;;;;;;;13.73;82.31;99886.81;5090849;28;20389;-82
2023/05/20 03:00:07;;;;;;;8.07;4.88;;;;;;;13.57;83.46;99865.97;5090799;28;20040;-83
2023/05/20 03:02:33;;;;;;;5.18;3.53;;;;;;;13.81;83.03;99899.88;5091020;28;20036;-82
2023/05/20 03:04:58;;;;;;;7.97;4.45;;;;;;;13.64;83.25;99869.38;5091644;28;20028;-82
2023/05/20 03:07:24;;;;;;;7.57;4.88;;;;;;;13.83;82.88;99895.44;5090273;28;20024;-82
2023/05/20 03:09:49;;;;;;;5.13;4.63;;;;;;;13.86;82.64;99892.69;5090404;28;20077;-82
2023/05/20 03:12:15;;;;;;;;;;;;;;;13.87;82.63;99899.72;5091563;28;20031;-82
2023/05/20 03:14:40;;;;;;;5.13;2.95;;;;;;;13.84;81.74;99891.84;5090156;28;19931;-82
2023/05/20 03:17:06;;;;;;;5.63;3.53;;;;;;;13.81;81.40;99921.09;5090812;28;20040;-82
2023/05/20 03:19:31;;;;;;;6.25;4.80;;;;;;;13.47;82.04;99884.78;5090905;28;20110;-81
2023/05/20 03:21:59;;;;;;;;;;;;;;;13.58;81.46;99925.19;5090065;28;20074;-82
2023/05/20 03:24:25;;;;;;;9.70;5.40;;;;;;;12.79;84.17;99880.97;5090252;28;19993;-81
2023/05/20 03:26:51;;;;;;;9.52;4.70;;;;;;;13.09;83.66;99911.22;5091064;28;20063;-82
2023/05/20 03:29:16;;;;;;;9.05;4.50;;;;;;;13.14;84.31;99905.84;5089030;28;20164;-82
2023/05/20 03:31:42;;;;;;;6.65;5.03;;;;;;;13.31;84.04;99927.50;5090962;28;20123;-82
2023/05/20 03:34:07;;;;;;;;;;;;;;;13.59;83.38;99948.09;5091191;28;20379;-82
2023/05/20 03:36:33;;;;;;;12.50;6.95;;;;;;;13.65;83.17;99921.47;5089849;28;19908;-82
2023/05/20 03:38:58;;;;;;;8.77;5.40;;;;;;;13.77;82.04;99905.25;5090735;28;20040;-83
2023/05/20 03:41:25;;;;;;;9.15;4.47;;;;;;;13.90;83.06;99934.13;5089934;28;20042;-82
2023/05/20 03:43:50;;;;;;;9.75;5.57;;;;;;;13.71;84.19;99905.41;5088226;28;20066;-80
2023/05/20 03:46:15;;;;;;;6.13;3.08;;;;;;;14.23;82.48;99934.19;5089092;28;20114;-82
2023/05/20 03:48:41;;;;;;;7.65;5.03;;;;;;;14.14;83.07;99930.84;5089858;28;20071;-81
2023/05/20 03:51:06;;;;;;;8.98;4.78;;;;;;;14.23;83.77;99915.63;5088030;28;20059;-82
2023/05/20 03:53:32;;;;;;;11.43;5.38;;;;;;;14.36;83.02;99927.63;5089644;28;20089;-82
2023/05/20 03:55:57;;;;;;;7.47;3.90;;;;;;;14.42;83.37;99898.25;5090298;28;20082;-82
2023/05/20 03:58:24;;;;;;;7.75;4.78;;;;;;;14.88;82.63;99920.03;5090198;28;20043;-82
2023/05/20 04:00:49;;;;;;;7.57;4.25;;;;;;;15.12;81.77;99920.22;5089296;28;20537;-82
2023/05/20 04:03:15;;;;;;;7.35;4.20;;;;;;;15.16;81.49;99904.13;5090072;28;20032;-82
2023/05/20 04:05:40;;;;;;;;;;;;;;;15.55;81.50;99935.72;5090768;28;20379;-82
2023/05/20 04:08:05;;;;;;;;;;;;;;;15.87;79.82;99941.81;5090092;28;20397;-82
2023/05/20 04:10:32;;;;;;;7.40;4.53;;;;;;;15.70;79.54;99894.44;5089601;28;19916;-82
2023/05/20 04:12:58;;;;;;;7.15;3.83;;;;;;;15.95;79.08;99906.97;5090210;28;20111;-82
2023/05/20 04:15:24;;;;;;;7.47;3.97;;;;;;;16.12;77.47;99930.34;5089839;28;20179;-82
2023/05/20 04:17:51;;;;;;;6.63;3.55;;;;;;;16.03;77.24;99923.53;5089522;28;20040;-82
2023/05/20 04:20:17;;;;;;;14.55;4.38;;;;;;;15.86;77.66;99926.75;5089440;28;20031;-83
2023/05/20 04:22:43;;;;;;;8.55;5.35;;;;;;;16.00;77.23;99922.78;5089370;28;20123;-84
2023/05/20 04:25:09;;;;;;;12.48;4.60;;;;;;;15.97;77.71;99917.56;5089369;28;20032;-83
2023/05/20 04:27:36;;;;;;;7.10;4.22;;;;;;;16.08;76.82;99936.69;5089483;28;20119;-82
2023/05/20 04:30:03;;;;;;;9.13;3.63;;;;;;;16.14;76.87;99954.25;5081177;28;20032;-84
2023/05/20 04:32:29;;;;;;;5.60;3.35;;;;;;;15.98;76.94;99906.00;5084370;28;20532;-84
2023/05/20 04:34:54;;;;;;;8.07;4.88;;;;;;;15.99;76.00;99900.63;5080721;28;20032;-83
2023/05/20 04:37:21;;;;;;;6.68;5.20;;;;;;;16.26;76.11;99956.47;5082135;28;20044;-83
2023/05/20 04:39:48;;;;;;;10.85;6.30;;;;;;;16.02;75.92;99903.19;5089683;28;20024;-84
2023/05/20 04:42:17;;;;;;;7.03;4.40;;;;;;;16.19;76.02;99953.16;5092952;28;20043;-83
2023/05/20 04:44:44;;;;;;;8.32;4.82;;;;;;;16.09;75.95;99938.44;5074683;28;20474;-84
2023/05/20 04:47:10;;;;;;;8.75;5.15;;;;;;;16.30;76.21;99974.09;5077407;28;20029;-83
2023/05/20 04:49:37;;;;;;;8.70;5.15;;;;;;;16.38;75.91;99982.69;5085029;28;20120;-84
2023/05/20 04:52:03;;;;;;;8.45;4.88;;;;;;;16.44;76.33;99961.16;5075628;28;20064;-83
2023/05/20 04:54:29;;;;;;;13.85;5.07;;;;;;;16.08;76.46;99912.72;5067181;28;20089;-84
2023/05/20 04:56:55;;;;;;;6.43;4.78;;;;;;;16.34;77.15;99943.75;5079208;28;20040;-84
2023/05/20 04:59:21;;;;;;;8.95;5.28;;;;;;;16.32;77.61;99947.44;5084274;28;20037;-84
2023/05/20 05:01:46;;;;;;;9.05;4.68;;;;;;;16.40;77.69;99948.88;5072324;28;20053;-84
2023/05/20 05:04:12;;;;;;;7.93;4.00;;;;;;;16.44;77.77;99934.53;5083972;28;20439;-85
2023/05/20 05:06:38;;;;;;;8.88;4.80;;;;;;;16.39;78.01;99922.31;5082424;28;20217;-84
2023/05/20 05:09:03;;;;;;;9.85;5.28;;;;;;;16.43;77.64;99930.13;5078791;28;20032;-85
2023/05/20 05:11:29;;;;;;;7.57;5.15;;;;;;;16.46;78.26;99959.31;5075226;28;20447;-84
2023/05/20 05:13:55;;;;;;;6.88;4.78;;;;;;;16.52;77.50;99933.41;5072853;28;20021;-83
2023/05/20 05:16:21;;;;;;;8.88;5.15;;;;;;;16.54;78.19;99924.44;5075208;28;20036;-84
2023/05/20 05:18:47;;;;;;;11.23;6.05;;;;;;;16.96;78.54;99945.13;5079319;28;20059;-84
2023/05/20 05:21:12;;;;;;;7.68;5.30;;;;;;;17.12;76.04;99932.09;5083318;28;20054;-85
2023/05/20 05:23:38;;;;;;;9.82;4.50;;;;;;;17.13;75.72;99949.84;5076439;28;20033;-85
2023/05/20 05:26:03;;;;;;;10.68;4.38;;;;;;;17.47;74.13;99935.19;5084542;28;20082;-84
2023/05/20 05:28:29;;;;;;;10.05;6.65;;;;;;;17.82;71.53;99918.69;5078101;28;20029;-85
2023/05/20 05:30:55;;;;;;;8.43;5.25;;;;;;;18.32;68.46;99954.88;5073876;28;20042;-86
2023/05/20 05:33:21;;;;;;;7.43;3.67;;;;;;;18.27;68.99;99935.53;5078552;28;20024;-85
2023/05/20 05:35:46;;;;;;;9.13;4.50;;;;;;;18.40;66.71;99948.28;5083270;28;20463;-83
2023/05/20 05:38:12;;;;;;;6.60;4.00;;;;;;;17.91;67.88;99947.69;5084533;28;20115;-85
2023/05/20 05:40:37;;;;;;;5.65;3.88;;;;;;;18.71;67.22;99940.72;5075072;28;20044;-84
2023/05/20 05:43:03;;;;;;;7.88;4.72;;;;;;;18.56;66.62;99911.06;5076883;28;20634;-85
2023/05/20 05:45:28;;;;;;;9.80;5.78;;;;;;;18.81;66.63;99922.47;5071742;28;20032;-84
2023/05/20 05:47:54;;;;;;;13.60;4.78;;;;;;;19.32;63.50;99948.63;5072953;28;20028;-84
2023/05/20 05:50:19;;;;;;;9.45;5.05;;;;;;;19.10;65.81;99913.13;5077874;28;20028;-84
2023/05/20 05:52:45;;;;;;;13.88;4.93;;;;;;;19.70;64.08;99945.06;5071410;28;20426;-84
2023/05/20 05:55:11;;;;;;;10.63;4.63;;;;;;;20.30;63.04;99944.78;5080235;28;20032;-84
2023/05/20 05:57:36;;;;;;;9.27;3.75;;;;;;;20.72;61.79;99914.00;5082621;28;20031;-84
2023/05/20 06:00:03;;;;;;;12.52;5.00;;;;;;;21.03;58.95;99901.63;5085570;28;20053;-81
2023/05/20 06:02:28;;;;;;;7.47;4.30;;;;;;;20.42;59.92;99900.41;5078870;28;20489;-81
2023/05/20 06:04:54;;;;;;;14.60;3.08;;;;;;;20.54;61.23;99904.25;5073017;28;20035;-83
2023/05/20 06:07:20;;;;;;;8.65;4.85;;;;;;;20.68;63.11;99908.91;5071936;28;20024;-81
2023/05/20 06:09:45;;;;;;;5.57;4.00;;;;;;;20.63;60.49;99893.03;5090990;28;20571;-82
2023/05/20 06:12:11;;;;;;;10.65;4.43;;;;;;;20.82;60.10;99902.78;5084103;28;20052;-82
2023/05/20 06:14:36;;;;;;;8.15;4.15;;;;;;;20.73;59.81;99912.22;5092425;28;20035;-81
2023/05/20 06:17:04;;;;;;;8.35;5.28;;;;;;;21.06;58.88;99936.31;5091639;28;20037;-81
2023/05/20 06:19:30;;;;;;;7.72;4.53;;;;;;;21.75;57.73;99934.28;5088958;28;20063;-81
2023/05/20 06:21:57;;;;;;;6.32;4.25;;;;;;;22.19;56.60;99916.53;5090485;28;20463;-81
2023/05/20 06:24:22;;;;;;;11.60;5.75;;;;;;;22.57;54.80;99942.06;5092055;28;20028;-81
2023/05/20 06:26:49;;;;;;;15.68;4.65;;;;;;;22.51;53.80;99922.66;5091928;28;20035;-83
2023/05/20 06:29:14;;;;;;;8.27;4.65;;;;;;;23.05;53.51;99919.31;5091292;28;20043;-84
2023/05/20 06:31:40;;;;;;;8.60;4.63;;;;;;;23.21;54.13;99935.38;5091777;28;20032;-83
2023/05/20 06:34:05;;;;;;;8.68;3.97;;;;;;;23.35;52.70;99922.88;5070109;28;20422;-85
2023/05/20 06:36:31;;;;;;;9.70;4.97;;;;;;;23.86;51.57;99927.66;5081981;28;20039;-86
2023/05/20 06:38:56;;;;;;;8.50;4.40;;;;;;;23.58;52.53;99921.38;5079191;28;20032;-84
2023/05/20 06:41:22;;;;;;;6.78;4.40;;;;;;;24.20;51.36;99938.88;5080603;28;20024;-84
2023/05/20 06:43:47;;;;;;;10.38;4.65;;;;;;;24.12;50.86;99886.34;5078462;28;20028;-83
2023/05/20 06:46:13;;;;;;;7.47;5.05;;;;;;;24.31;49.58;99909.34;5079613;28;20028;-85
2023/05/20 06:48:38;;;;;;;14.82;4.25;;;;;;;24.80;48.26;99908.63;5088432;28;20032;-83
2023/05/20 06:51:08;;;;;;;8.90;4.32;;;;;;;24.93;47.86;99908.66;5086685;28;20060;-85
2023/05/20 06:53:33;;;;;;;6.63;4.32;;;;;;;25.15;48.91;99907.09;5087831;28;20042;-84
2023/05/20 06:55:59;;;;;;;9.07;6.35;;;;;;;25.27;48.94;99887.31;5089446;28;20102;-83
2023/05/20 06:58:24;;;;;;;11.82;4.97;;;;;;;25.23;48.27;99902.00;5091115;28;20040;-83
2023/05/20 07:00:50;;;;;;;6.60;3.05;;;;;;;25.67;45.87;99922.19;5089712;28;20061;-84
2023/05/20 07:03:16;;;;;;;9.23;3.53;;;;;;;25.64;43.74;99902.63;5090535;28;20085;-84
2023/05/20 07:05:41;;;;;;;7.35;4.57;;;;;;;26.12;45.60;99915.28;5071794;28;20567;-84
2023/05/20 07:08:07;;;;;;;9.32;4.10;;;;;;;25.46;44.82;99904.88;5090314;28;20473;-85
2023/05/20 07:10:33;;;;;;;16.13;4.43;;;;;;;25.67;46.51;99889.78;5088736;28;20032;-87
2023/05/20 07:12:58;;;;;;;6.18;4.00;;;;;;;25.66;46.59;99896.16;5090917;28;20036;-84
2023/05/20 07:15:24;;;;;;;14.00;4.70;;;;;;;26.26;46.34;99904.28;5087081;28;20020;-84
2023/05/20 07:17:49;;;;;;;7.88;3.97;;;;;;;26.52;45.94;99918.47;5091024;28;20062;-84
2023/05/20 07:20:15;;;;;;;7.30;3.90;;;;;;;26.49;42.52;99907.03;5090463;28;20040;-84
2023/05/20 07:22:41;;;;;;;7.20;4.15;;;;;;;26.95;41.73;99908.81;5090158;28;20044;-85
2023/05/20 07:25:07;;;;;;;7.90;5.05;;;;;;;27.54;40.66;99893.28;5089903;28;20417;-84
2023/05/20 07:27:32;;;;;;;11.45;3.28;;;;;;;27.47;40.21;99895.66;5090482;28;20024;-85
2023/05/20 07:29:58;;;;;;;15.23;5.32;;;;;;;27.11;42.18;99871.44;5070833;28;20063;-85
2023/05/20 07:32:23;;;;;;;8.98;3.90;;;;;;;27.34;41.35;99906.59;5083475;28;20028;-84
2023/05/20 07:34:49;;;;;;;6.18;4.00;;;;;;;27.06;41.47;99886.31;5070605;28;20032;-85
2023/05/20 07:37:15;;;;;;;6.03;3.22;;;;;;;26.86;42.46;99901.44;5070359;28;20028;-85
2023/05/20 07:39:40;;;;;;;8.15;3.58;;;;;;;26.39;42.67;99906.91;5069356;28;20051;-85
2023/05/20 07:42:06;;;;;;;4.85;3.15;;;;;;;26.32;42.88;99916.44;5069965;28;20125;-84
2023/05/20 07:44:31;;;;;;;5.90;3.83;;;;;;;26.30;41.88;99907.63;5077997;28;20040;-84
2023/05/20 07:46:57;;;;;;;6.35;3.75;;;;;;;25.30;44.92;99918.63;5077673;28;20036;-85
2023/05/20 07:49:25;;;;;;;6.93;3.08;;;;;;;25.18;44.49;99921.22;5076477;28;20032;-84
2023/05/20 07:51:50;;;;;;;5.25;3.38;;;;;;;25.24;44.69;99894.75;5064796;28;20056;-86
2023/05/20 07:54:16;;;;;;;5.40;2.92;;;;;;;25.27;43.63;99913.41;5090011;28;20505;-85
2023/05/20 07:56:41;;;;;;;5.90;3.05;;;;;;;25.65;44.98;99905.22;5087917;28;20182;-85
2023/05/20 07:59:07;;;;;;;5.40;3.03;;;;;;;25.72;43.50;99886.75;5086658;28;20138;-86
2023/05/20 08:01:33;;;;;;;18.35;6.85;;;;;;;26.05;46.67;99896.84;5089687;28;20044;-89
2023/05/20 08:03:59;;;;;;;11.98;5.75;;;;;;;26.19;42.78;99897.63;5070047;28;20024;-86
2023/05/20 08:06:25;;;;;;;8.70;5.63;;;;;;;26.12;41.91;99875.63;5076010;28;20035;-86
2023/05/20 08:08:53;;;;;;;5.93;3.75;;;;;;;26.18;43.42;99875.16;5081470;28;20032;-87
2023/05/20 08:11:20;;;;;;;7.10;3.67;;;;;;;26.19;43.78;99916.56;5085313;28;20164;-85
2023/05/20 08:13:46;;;;;;;7.18;3.33;;;;;;;26.07;40.97;99908.41;5087625;28;20048;-85
2023/05/20 08:16:11;;;;;;;11.05;2.83;;;;;;;25.77;42.52;99889.94;5083426;28;20132;-86
2023/05/20 08:18:37;;;;;;;8.77;3.65;;;;;;;25.90;42.73;99915.06;5065085;28;20040;-84
2023/05/20 08:21:04;;;;;;;7.88;4.05;;;;;;;25.49;41.26;99908.22;5083393;28;20802;-84
2023/05/20 08:23:29;;;;;;;5.13;3.28;;;;;;;25.70;43.25;99913.88;5086435;28;20554;-84
2023/05/20 08:25:56;;;;;;;16.83;3.35;;;;;;;25.84;39.80;99879.53;5082977;28;20024;-85
2023/05/20 08:28:21;;;;;;;4.72;2.90;;;;;;;25.80;41.80;99872.66;5085263;28;20040;-83
2023/05/20 08:30:47;;;;;;;14.20;3.42;;;;;;;25.62;40.47;99883.00;5065515;28;20040;-85
2023/05/20 08:33:13;;;;;;;4.78;2.95;;;;;;;25.37;41.12;99882.97;5085979;28;20060;-84
2023/05/20 08:35:39;;;;;;;4.78;2.58;;;;;;;25.60;43.04;99914.66;5083439;28;20059;-87
2023/05/20 08:38:05;;;;;;;10.82;3.53;;;;;;;25.54;41.61;99857.41;5069870;28;20428;-86
2023/05/20 08:40:33;;;;;;;4.78;2.53;;;;;;;25.62;43.67;99893.78;5074431;28;20129;-84
2023/05/20 08:43:00;;;;;;;5.68;2.55;;;;;;;25.98;41.93;99881.22;5058976;28;20041;-87
2023/05/20 08:45:27;;;;;;;4.82;2.70;;;;;;;26.38;41.94;99899.75;5065988;28;20024;-86
2023/05/20 08:47:53;;;;;;;9.35;4.00;;;;;;;26.36;40.71;99853.91;5080279;28;20020;-86
2023/05/20 08:50:19;;;;;;;5.57;2.70;;;;;;;26.42;39.17;99874.22;5081281;28;20032;-86
2023/05/20 08:52:47;;;;;;;4.07;2.67;;;;;;;26.45;41.35;99879.38;5086134;28;20046;-83
2023/05/20 08:55:43;;;;;;;4.43;2.50;;;;;;;26.13;39.10;99898.94;5089079;28;20032;-85
2023/05/20 08:58:09;;;;;;;5.75;2.80;;;;;;;25.67;40.43;99873.56;5087879;28;20028;-80
2023/05/20 09:00:35;;;;;;;4.80;2.63;;;;;;;25.79;40.80;99868.22;5081270;28;20620;-81
2023/05/20 09:03:00;;;;;;;6.95;3.00;;;;;;;25.83;39.97;99894.88;5087184;28;20063;-81
2023/05/20 09:05:26;;;;;;;4.57;2.53;;;;;;;25.72;40.86;99882.19;5088056;28;20067;-82
2023/05/20 09:07:51;;;;;;;5.95;2.88;;;;;;;25.84;41.44;99911.94;5087861;28;20032;-81
2023/05/20 09:10:18;;;;;;;11.10;2.75;;;;;;;25.27;42.29;99854.91;5081491;28;20474;-80
2023/05/20 09:12:44;;;;;;;5.30;2.95;;;;;;;25.39;42.25;99877.47;5076143;28;20424;-81
2023/05/20 09:15:10;;;;;;;4.00;2.20;;;;;;;25.20;42.75;99908.47;5077116;28;20025;-80
2023/05/20 09:17:37;;;;;;;6.38;2.88;;;;;;;24.77;43.37;99864.84;5083169;28;20042;-84
2023/05/20 09:20:10;;;;;;;4.97;3.20;;;;;;;25.08;42.42;99893.16;5062762;28;20413;-82
2023/05/20 09:22:37;;;;;;;4.93;2.60;;;;;;;25.07;43.93;99899.56;5087755;28;20119;-82
2023/05/20 09:25:03;;;;;;;9.02;2.33;;;;;;;25.30;43.97;99875.44;5089065;28;20066;-82
2023/05/20 09:27:28;;;;;;;5.22;2.75;;;;;;;25.53;44.02;99889.94;5084118;28;20451;-82
2023/05/20 09:29:54;;;;;;;9.02;3.10;;;;;;;25.67;43.23;99848.38;5083109;28;20028;-80
2023/05/20 09:32:23;;;;;;;5.28;3.13;;;;;;;25.71;45.88;99885.00;5086845;28;20028;-80
2023/05/20 09:34:48;;;;;;;4.53;2.60;;;;;;;25.33;45.25;99835.59;5091900;28;20032;-81
2023/05/20 09:37:18;;;;;;;4.20;2.67;;;;;;;25.04;45.94;99888.97;5091120;28;20459;-81
2023/05/20 09:39:59;;;;;;;5.18;2.85;;;;;;;25.00;45.78;99895.56;5073863;28;20089;-81
2023/05/20 09:42:29;;;;;;;4.63;2.10;;;;;;;25.05;46.70;99896.09;5090276;28;20066;-81
2023/05/20 09:44:56;;;;;;;3.42;2.13;;;;;;;24.89;44.98;99865.81;5083850;28;20032;-82
2023/05/20 09:47:24;;;;;;;5.45;2.95;;;;;;;24.95;44.78;99854.56;5090200;28;20020;-82
2023/05/20 09:49:51;;;;;;;4.85;3.20;;;;;;;25.29;48.32;99898.03;5091869;28;20032;-81
2023/05/20 09:52:17;;;;;;;5.35;3.20;;;;;;;24.83;54.31;99861.72;5090924;28;20056;-82
2023/05/20 09:54:43;;;;;;;3.67;2.70;;;;;;;25.35;49.41;99873.28;5090077;28;20553;-80
2023/05/20 09:57:09;;;;;;;6.93;3.33;;;;;;;25.62;44.80;99885.69;5092013;28;20093;-82
2023/05/20 09:59:36;;;;;;;8.32;2.95;;;;;;;25.94;45.51;99840.03;5091643;28;20032;-83
2023/05/20 10:02:02;;;;;;;11.65;3.25;;;;;;;26.24;42.37;99839.53;5080624;28;20111;-82
2023/05/20 10:04:30;;;;;;;4.40;2.67;;;;;;;26.02;40.54;99843.03;5075473;28;20131;-82
2023/05/20 10:07:01;;;;;;;4.05;2.30;;;;;;;25.61;43.98;99873.16;5087918;28;20582;-82
2023/05/20 10:09:45;;;;;;;7.78;3.60;;;;;;;25.39;38.86;99869.34;5087006;28;20032;-82
2023/05/20 10:12:16;;;;;;;6.65;3.10;;;;;;;24.86;41.66;99869.56;5084891;28;20592;-83
2023/05/20 10:14:57;;;;;;;5.07;2.95;;;;;;;25.05;42.10;99862.84;5086105;28;20038;-83
2023/05/20 10:18:05;;;;;;;7.40;2.38;;;;;;;24.93;39.30;99875.38;5090612;28;20035;-87
2023/05/20 10:20:31;;;;;;;3.65;2.38;;;;;;;24.70;40.00;99828.47;5061997;28;20049;-83
2023/05/20 10:22:57;;;;;;;5.25;2.97;;;;;;;24.73;39.36;99839.94;5078210;28;20504;-82
2023/05/20 10:25:27;;;;;;;6.07;2.70;;;;;;;24.63;38.63;99850.50;5088754;28;20096;-82
2023/05/20 10:28:07;;;;;;;3.92;2.42;;;;;;;24.64;39.76;99829.81;5081357;28;20105;-83
2023/05/20 10:30:32;;;;;;;6.07;2.58;;;;;;;24.78;39.42;99848.56;5085809;28;20032;-82
2023/05/20 10:33:05;;;;;;;6.43;2.90;;;;;;;24.48;38.88;99856.94;5089161;28;20043;-83
2023/05/20 10:35:31;;;;;;;3.72;2.38;;;;;;;24.25;42.44;99823.53;5075511;28;20486;-83
2023/05/20 10:38:11;;;;;;;4.22;2.47;;;;;;;23.44;44.59;99865.75;5083539;28;20032;-81
2023/05/20 10:40:37;;;;;;;6.10;2.78;;;;;;;23.04;46.74;99838.72;5090838;28;20028;-82
2023/05/20 10:43:13;;;;;;;9.85;4.28;;;;;;;22.68;47.98;99869.69;5090474;28;20106;-82
2023/05/20 10:45:54;;;;;;;5.22;3.38;;;;;;;22.46;48.91;99840.56;5090852;28;20024;-84
2023/05/20 10:48:31;;;;;;;12.75;4.70;;;;;;;22.27;49.04;99835.47;5089695;28;20032;-82
2023/05/20 10:50:58;;;;;;;6.22;2.72;;;;;;;22.63;49.60;99864.59;5090614;28;20024;-83
2023/05/20 10:53:26;;;;;;;7.05;2.83;;;;;;;22.44;49.63;99843.38;5091422;28;20505;-82
2023/05/20 10:55:56;;;;;;;5.85;3.30;;;;;;;22.49;50.11;99857.41;5072564;28;20490;-82
2023/05/20 10:58:26;;;;;;;5.18;3.42;;;;;;;22.43;51.23;99844.34;5090739;28;20028;-85
2023/05/20 11:00:53;;;;;;;5.90;3.78;;;;;;;22.69;51.39;99850.78;5064026;28;20056;-86
2023/05/20 11:03:23;;;;;;;5.50;3.05;;;;;;;22.55;51.14;99828.41;5064808;28;20502;-83
2023/05/20 11:05:49;;;;;;;6.07;2.55;;;;;;;22.73;51.20;99864.88;5059903;28;20046;-83
2023/05/20 11:08:15;;;;;;;4.25;2.70;;;;;;;22.66;50.55;99847.41;5059246;28;20052;-83
2023/05/20 11:10:41;;;;;;;4.93;3.00;;;;;;;22.77;51.63;99836.84;5061971;28;20098;-83
2023/05/20 11:13:07;;;;;;;8.55;3.55;;;;;;;23.00;51.48;99837.19;5066878;28;20482;-82
2023/05/20 11:15:34;;;;;;;5.90;3.20;;;;;;;23.30;50.34;99845.13;5059280;28;20013;-83
2023/05/20 11:18:02;;;;;;;8.27;3.70;;;;;;;23.13;49.94;99829.25;5068832;28;20410;-82
2023/05/20 11:20:28;;;;;;;8.05;2.67;;;;;;;23.53;50.39;99832.00;5063336;28;20017;-82
2023/05/20 11:22:55;;;;;;;6.55;2.78;;;;;;;23.78;49.01;99841.97;5068768;28;20031;-81
2023/05/20 11:25:22;;;;;;;3.80;2.17;;;;;;;23.68;47.68;99822.88;5069340;28;20079;-81
2023/05/20 11:27:48;;;;;;;5.53;3.15;;;;;;;23.94;48.63;99820.25;5061494;28;20031;-82
2023/05/20 11:30:15;;;;;;;4.50;2.78;;;;;;;23.59;46.19;99816.28;5068497;28;20021;-82
2023/05/20 11:32:44;;;;;;;3.70;2.22;;;;;;;23.93;46.93;99827.47;5057822;28;20032;-82
2023/05/20 11:35:26;;;;;;;6.15;3.17;;;;;;;23.58;43.66;99800.22;5049662;28;20047;-81